Time;durP1;ratioP1;P1;durP2;ratioP2;P2;SDS_P1;SDS_P2;PMS_P1;PMS_P2;Temp;Humidity;BMP_temperature;BMP_pressure;BME280_temperature;BME280_humidity;BME280_pressure;Samples;Min_cycle;Max_cycle;Signal;HPM_P1;HPM_P2
2022/07/30 00:01:29;;;;;;;10.15;5.67;;;;;;;18.26;65.26;100593.29;1792141;79;22241;-72
2022/07/30 00:03:55;;;;;;;10.00;5.70;;;;;;;18.24;65.30;100589.13;1795830;79;21428;-71
2022/07/30 00:06:22;;;;;;;8.25;5.20;;;;;;;18.22;65.39;100590.59;1773192;81;20967;-72
2022/07/30 00:08:50;;;;;;;11.15;5.83;;;;;;;18.19;65.39;100594.95;1772884;81;20993;-72
2022/07/30 00:11:20;;;;;;;9.03;4.78;;;;;;;18.17;65.47;100593.45;1772910;81;21015;-71
2022/07/30 00:13:47;;;;;;;9.63;5.08;;;;;;;18.14;65.44;100586.58;1781520;79;22247;-74
2022/07/30 00:16:13;;;;;;;7.15;4.92;;;;;;;18.12;65.39;100589.92;1791090;79;20951;-72
2022/07/30 00:18:41;;;;;;;7.42;4.45;;;;;;;18.11;65.50;100590.92;1757304;80;21062;-71
2022/07/30 00:21:07;;;;;;;6.97;4.50;;;;;;;18.11;65.74;100588.25;1788914;79;21070;-72
2022/07/30 00:23:35;;;;;;;7.45;4.60;;;;;;;18.12;65.76;100591.76;1784007;79;20987;-71
2022/07/30 00:26:02;;;;;;;8.53;4.75;;;;;;;18.11;65.75;100591.42;1772326;80;21837;-71
2022/07/30 00:28:29;;;;;;;7.42;4.60;;;;;;;18.11;65.64;100595.44;1804896;79;20983;-71
2022/07/30 00:30:55;;;;;;;8.40;4.40;;;;;;;18.09;65.58;100591.59;1772643;81;21427;-72
2022/07/30 00:33:22;;;;;;;7.33;4.30;;;;;;;18.05;65.57;100588.93;1808287;77;21565;-71
2022/07/30 00:35:50;;;;;;;7.15;4.70;;;;;;;18.00;65.59;100592.08;1823881;77;21514;-72
2022/07/30 00:38:16;;;;;;;6.33;3.87;;;;;;;17.96;65.72;100589.41;1817540;78;22570;-71
2022/07/30 00:40:45;;;;;;;6.75;3.95;;;;;;;17.94;65.79;100591.89;1816258;78;21410;-72
2022/07/30 00:43:16;;;;;;;5.30;3.65;;;;;;;17.92;65.89;100583.21;1790346;77;20938;-72
2022/07/30 00:45:43;;;;;;;6.55;3.47;;;;;;;17.90;65.99;100577.20;1816453;77;22377;-73
2022/07/30 00:48:12;;;;;;;7.00;3.95;;;;;;;17.88;66.10;100576.53;1837267;77;21003;-71
2022/07/30 00:50:38;;;;;;;5.33;3.80;;;;;;;17.85;66.17;100570.16;1848588;77;21981;-72
2022/07/30 00:53:06;;;;;;;8.38;4.40;;;;;;;17.82;66.26;100571.33;1789286;79;20939;-72
2022/07/30 00:55:32;;;;;;;5.05;3.33;;;;;;;17.81;66.39;100564.82;1819386;77;20945;-72
2022/07/30 00:58:00;;;;;;;11.93;4.15;;;;;;;17.79;66.48;100569.50;1799137;79;21024;-71
2022/07/30 01:00:27;;;;;;;4.95;3.62;;;;;;;17.77;66.56;100567.50;1820692;76;20942;-71
2022/07/30 01:02:54;;;;;;;7.37;3.70;;;;;;;17.75;66.60;100568.97;1849611;77;21881;-71
2022/07/30 01:05:21;;;;;;;5.47;3.25;;;;;;;17.73;66.59;100569.14;1830586;77;21486;-71
2022/07/30 01:07:47;;;;;;;7.58;3.55;;;;;;;17.71;66.61;100568.97;1772586;79;21035;-71
2022/07/30 01:10:15;;;;;;;4.78;3.40;;;;;;;17.68;66.69;100567.94;1783287;80;21455;-71
2022/07/30 01:12:43;;;;;;;5.78;3.52;;;;;;;17.65;66.85;100563.73;1783292;79;20947;-71
2022/07/30 01:15:10;;;;;;;5.83;3.58;;;;;;;17.65;67.00;100566.91;1757174;80;21836;-71
2022/07/30 01:17:38;;;;;;;7.90;3.90;;;;;;;17.64;67.06;100571.42;1783255;80;21050;-71
2022/07/30 01:20:15;;;;;;;6.15;3.50;;;;;;;17.63;66.99;100563.07;1783539;80;20939;-71
2022/07/30 01:23:28;;;;;;;5.35;3.33;;;;;;;17.61;67.02;100561.57;1783417;80;20963;-71
2022/07/30 01:26:01;;;;;;;9.60;3.80;;;;;;;17.59;67.20;100560.40;1784573;79;20987;-72
2022/07/30 01:28:32;;;;;;;6.97;3.52;;;;;;;17.58;67.24;100565.41;1783369;80;21811;-71
2022/07/30 01:31:00;;;;;;;7.17;3.83;;;;;;;17.56;67.18;100562.04;1783762;80;20984;-71
2022/07/30 01:33:27;;;;;;;5.25;3.50;;;;;;;17.52;67.17;100563.88;1783287;80;21060;-71
2022/07/30 01:35:55;;;;;;;7.35;3.65;;;;;;;17.47;67.21;100563.04;1784069;79;20949;-72
2022/07/30 01:38:23;;;;;;;4.90;3.40;;;;;;;17.46;67.20;100560.00;1766931;81;21466;-71
2022/07/30 01:40:51;;;;;;;6.83;3.50;;;;;;;17.45;67.18;100558.34;1780358;80;21911;-71
2022/07/30 01:43:18;;;;;;;6.80;3.22;;;;;;;17.44;67.18;100554.00;1787817;80;21083;-71
2022/07/30 01:45:47;;;;;;;5.80;3.75;;;;;;;17.42;67.33;100552.83;1789840;79;20980;-71
2022/07/30 01:48:16;;;;;;;6.60;3.35;;;;;;;17.41;67.46;100551.66;1795841;80;21482;-71
2022/07/30 01:50:45;;;;;;;6.42;3.45;;;;;;;17.42;67.58;100551.99;1812357;78;20953;-71
2022/07/30 01:53:16;;;;;;;8.85;3.47;;;;;;;17.39;67.57;100546.98;1812288;79;21971;-71
2022/07/30 01:55:44;;;;;;;5.47;3.47;;;;;;;17.36;67.68;100549.95;1795950;79;21384;-71
2022/07/30 01:58:11;;;;;;;8.00;3.52;;;;;;;17.35;67.75;100546.95;1780500;80;21039;-71
2022/07/30 02:00:42;;;;;;;8.95;3.83;;;;;;;17.33;67.75;100542.28;1808640;79;20975;-71
2022/07/30 02:03:11;;;;;;;7.83;3.50;;;;;;;17.30;67.78;100546.62;1787810;79;20984;-72
2022/07/30 02:05:38;;;;;;;5.50;3.30;;;;;;;17.26;67.81;100539.41;1811256;79;21692;-71
2022/07/30 02:08:41;;;;;;;3.98;2.80;;;;;;;17.23;67.87;100542.41;1787275;79;20932;-71
2022/07/30 02:11:10;;;;;;;4.37;3.00;;;;;;;17.21;67.91;100544.91;1812159;79;21023;-71
2022/07/30 02:13:48;;;;;;;6.05;3.40;;;;;;;17.18;68.04;100543.41;1812330;77;20944;-71
2022/07/30 02:16:21;;;;;;;5.55;3.10;;;;;;;17.15;68.12;100540.53;1800482;78;20947;-71
2022/07/30 02:19:01;;;;;;;4.92;3.37;;;;;;;17.13;68.25;100542.53;1812238;77;21952;-71
2022/07/30 02:21:33;;;;;;;4.03;3.17;;;;;;;17.12;68.47;100552.05;1812245;79;21533;-71
2022/07/30 02:23:59;;;;;;;8.55;3.65;;;;;;;17.11;68.60;100551.20;1812184;78;20979;-72
2022/07/30 02:26:28;;;;;;;4.20;3.00;;;;;;;17.12;68.70;100552.05;1788657;79;21023;-71
2022/07/30 02:28:56;;;;;;;6.25;3.17;;;;;;;17.12;68.80;100547.54;1780589;80;20943;-71
2022/07/30 02:31:25;;;;;;;5.55;3.40;;;;;;;17.12;68.89;100559.55;1780233;79;21902;-72
2022/07/30 02:33:58;;;;;;;3.80;2.87;;;;;;;17.10;68.99;100560.21;1782659;80;20972;-72
2022/07/30 02:36:27;;;;;;;5.03;3.23;;;;;;;17.10;69.12;100554.04;1780719;80;21008;-72
2022/07/30 02:38:56;;;;;;;4.03;2.90;;;;;;;17.10;69.16;100557.55;1774753;79;20972;-72
2022/07/30 02:41:24;;;;;;;6.53;3.50;;;;;;;17.12;69.17;100561.38;1804274;79;21466;-72
2022/07/30 02:43:51;;;;;;;4.50;3.20;;;;;;;17.14;69.15;100560.22;1803067;79;21927;-72
2022/07/30 02:46:21;;;;;;;4.85;3.12;;;;;;;17.15;69.15;100561.05;1772395;79;20988;-72
2022/07/30 02:48:52;;;;;;;4.67;3.10;;;;;;;17.15;69.15;100561.05;1760489;79;20953;-72
2022/07/30 02:51:21;;;;;;;5.90;3.17;;;;;;;17.15;69.16;100560.55;1795986;79;21055;-72
2022/07/30 02:53:49;;;;;;;4.47;2.95;;;;;;;17.14;69.19;100553.55;1804297;79;20984;-71
2022/07/30 02:56:16;;;;;;;4.95;3.40;;;;;;;17.14;69.25;100554.88;1790204;79;22210;-71
2022/07/30 02:58:44;;;;;;;5.42;3.40;;;;;;;17.15;69.34;100553.05;1744369;79;20956;-71
2022/07/30 03:01:14;;;;;;;4.20;3.52;;;;;;;17.17;69.44;100559.89;1783304;79;21010;-71
2022/07/30 03:03:42;;;;;;;5.58;3.22;;;;;;;17.19;69.53;100560.25;1783587;79;21459;-71
2022/07/30 03:06:10;;;;;;;8.55;2.98;;;;;;;17.23;69.74;100565.10;1781647;80;21062;-72
2022/07/30 03:08:38;;;;;;;6.50;3.30;;;;;;;17.27;69.84;100563.77;1810945;79;21815;-70
2022/07/30 03:11:05;;;;;;;7.28;3.30;;;;;;;17.30;69.83;100561.30;1786057;79;20919;-71
2022/07/30 03:13:32;;;;;;;4.58;3.10;;;;;;;17.35;69.86;100561.64;1815185;77;20932;-71
2022/07/30 03:16:00;;;;;;;5.72;2.90;;;;;;;17.39;69.89;100550.99;1814466;79;21033;-70
2022/07/30 03:18:29;;;;;;;5.20;3.75;;;;;;;17.43;69.84;100565.17;1815645;78;21019;-71
2022/07/30 03:20:58;;;;;;;4.28;3.47;;;;;;;17.51;69.72;100560.88;1815361;79;21922;-71
2022/07/30 03:23:26;;;;;;;4.97;3.17;;;;;;;17.58;69.63;100564.58;1815347;79;20967;-72
2022/07/30 03:25:57;;;;;;;4.58;3.20;;;;;;;17.66;69.52;100565.91;1798216;77;20928;-71
2022/07/30 03:28:23;;;;;;;4.45;3.40;;;;;;;17.73;69.56;100569.64;1815503;79;21517;-71
2022/07/30 03:30:51;;;;;;;4.42;3.60;;;;;;;17.82;69.58;100568.66;1815726;77;20975;-71
2022/07/30 03:33:19;;;;;;;5.08;3.30;;;;;;;17.92;69.59;100567.17;1815307;79;21931;-71
2022/07/30 03:35:47;;;;;;;4.70;3.08;;;;;;;18.01;69.57;100572.87;1803098;77;21414;-71
2022/07/30 03:38:15;;;;;;;5.35;3.05;;;;;;;18.11;69.62;100582.91;1783163;79;20995;-71
2022/07/30 03:40:43;;;;;;;4.75;3.27;;;;;;;18.17;69.66;100584.92;1711469;81;21596;-71
2022/07/30 03:43:12;;;;;;;6.37;3.27;;;;;;;18.24;69.70;100585.11;1818615;77;20971;-71
2022/07/30 03:45:41;;;;;;;6.12;3.42;;;;;;;18.31;69.69;100592.78;1804211;79;21934;-71
2022/07/30 03:48:11;;;;;;;4.15;3.10;;;;;;;18.39;69.82;100593.28;1772411;81;21565;-72
2022/07/30 03:50:40;;;;;;;4.42;3.35;;;;;;;18.45;69.87;100589.95;1761706;80;20993;-71
2022/07/30 03:53:10;;;;;;;6.58;3.40;;;;;;;18.53;69.86;100597.48;1815352;78;21526;-72
2022/07/30 03:55:40;;;;;;;5.65;3.50;;;;;;;18.62;69.84;100596.95;1809986;79;21073;-72
2022/07/30 03:58:11;;;;;;;7.85;3.70;;;;;;;18.72;69.83;100598.14;1774822;79;21857;-71
2022/07/30 04:00:39;;;;;;;5.30;3.52;;;;;;;18.84;69.94;100586.94;1804490;78;21058;-71
2022/07/30 04:03:06;;;;;;;5.58;3.77;;;;;;;18.96;69.93;100583.89;1815324;79;20972;-71
2022/07/30 04:05:47;;;;;;;4.40;3.50;;;;;;;19.08;69.71;100582.02;1792275;79;21067;-71
2022/07/30 04:08:14;;;;;;;4.78;3.42;;;;;;;19.23;69.49;100586.16;1769308;81;21435;-72
2022/07/30 04:10:42;;;;;;;10.05;3.37;;;;;;;19.33;69.56;100584.11;1769231;81;22684;-71
2022/07/30 04:13:20;;;;;;;6.45;3.17;;;;;;;19.41;69.47;100579.23;1764820;81;21047;-71
2022/07/30 04:16:15;;;;;;;6.78;3.42;;;;;;;19.49;69.35;100585.87;1781207;79;21404;-72
2022/07/30 04:18:46;;;;;;;5.20;3.27;;;;;;;19.55;69.37;100582.50;1801097;79;20949;-72
2022/07/30 04:21:14;;;;;;;3.17;2.77;;;;;;;19.65;68.95;100585.83;1801150;79;20991;-72
2022/07/30 04:23:42;;;;;;;4.87;3.30;;;;;;;19.73;68.47;100581.77;1801310;79;21942;-72
2022/07/30 04:26:09;;;;;;;5.12;2.90;;;;;;;19.85;67.74;100587.56;1769546;79;21023;-72
2022/07/30 04:28:37;;;;;;;4.42;3.00;;;;;;;19.96;67.02;100586.32;1770228;79;21019;-71
2022/07/30 04:31:04;;;;;;;6.78;3.60;;;;;;;20.07;66.54;100581.88;1744942;79;21362;-72
2022/07/30 04:33:31;;;;;;;5.35;3.47;;;;;;;20.18;66.44;100585.52;1775150;79;20988;-72
2022/07/30 04:36:09;;;;;;;8.88;3.30;;;;;;;20.30;66.52;100581.39;1774838;79;21851;-72
2022/07/30 04:38:39;;;;;;;4.87;3.40;;;;;;;20.45;66.60;100579.28;1770390;79;21020;-72
2022/07/30 04:41:06;;;;;;;4.37;3.45;;;;;;;20.57;66.96;100582.70;1801020;79;20991;-72
2022/07/30 04:43:36;;;;;;;7.47;3.72;;;;;;;20.70;67.25;100574.53;1797190;79;21435;-71
2022/07/30 04:46:03;;;;;;;6.95;3.65;;;;;;;20.84;67.54;100568.33;1794507;79;21514;-71
2022/07/30 04:48:30;;;;;;;5.47;4.10;;;;;;;20.98;68.03;100568.87;1800241;79;22540;-72
2022/07/30 04:51:00;;;;;;;6.30;4.03;;;;;;;21.12;68.33;100569.88;1757842;78;20996;-71
2022/07/30 04:53:28;;;;;;;8.38;4.00;;;;;;;21.27;68.45;100566.72;1755692;80;21011;-71
2022/07/30 04:55:57;;;;;;;6.95;4.20;;;;;;;21.40;68.42;100564.70;1784795;79;21454;-72
2022/07/30 04:58:25;;;;;;;7.30;3.67;;;;;;;21.53;68.20;100566.23;1802877;79;20951;-71
2022/07/30 05:00:52;;;;;;;5.05;3.55;;;;;;;21.65;68.16;100565.23;1783455;80;22254;-71
2022/07/30 05:03:20;;;;;;;6.42;4.00;;;;;;;21.80;68.31;100579.95;1783182;79;20991;-71
2022/07/30 05:05:51;;;;;;;8.58;4.22;;;;;;;21.93;68.14;100577.44;1781250;80;21035;-72
2022/07/30 05:08:18;;;;;;;9.68;3.75;;;;;;;22.05;67.66;100585.31;1801677;77;21039;-71
2022/07/30 05:10:45;;;;;;;6.67;3.75;;;;;;;22.18;67.41;100577.39;1769317;79;21426;-72
2022/07/30 05:13:13;;;;;;;5.17;3.47;;;;;;;22.28;66.97;100571.17;1799642;78;22521;-72
2022/07/30 05:15:40;;;;;;;5.55;3.47;;;;;;;22.39;66.45;100571.67;1769260;79;20999;-72
2022/07/30 05:18:11;;;;;;;7.95;3.60;;;;;;;22.50;66.16;100567.13;1774774;79;20991;-70
2022/07/30 05:20:40;;;;;;;9.33;3.20;;;;;;;22.60;65.79;100566.28;1815696;78;21469;-70
2022/07/30 05:23:14;;;;;;;6.42;3.58;;;;;;;22.71;65.26;100565.73;1815013;78;21315;-71
2022/07/30 05:25:43;;;;;;;7.97;3.65;;;;;;;22.81;64.76;100570.27;1815533;79;20939;-71
2022/07/30 05:28:19;;;;;;;8.13;3.42;;;;;;;22.90;64.22;100567.45;1790139;79;20983;-71
2022/07/30 05:30:46;;;;;;;10.98;3.80;;;;;;;22.98;63.94;100567.30;1815782;77;21366;-71
2022/07/30 05:33:16;;;;;;;9.40;3.40;;;;;;;23.07;63.74;100576.37;1815484;77;21059;-71
2022/07/30 05:35:45;;;;;;;3.95;2.92;;;;;;;23.19;63.24;100578.50;1786504;79;20991;-71
2022/07/30 05:38:16;;;;;;;4.87;2.80;;;;;;;23.29;62.93;100574.93;1815289;78;22008;-73
2022/07/30 05:40:50;;;;;;;6.45;2.60;;;;;;;23.40;62.01;100581.09;1793519;78;20986;-72
2022/07/30 05:43:37;;;;;;;5.85;2.77;;;;;;;23.49;60.64;100573.67;1742843;81;20993;-72
2022/07/30 05:46:03;;;;;;;6.42;2.87;;;;;;;23.55;60.09;100585.84;1797779;78;20947;-72
2022/07/30 05:48:33;;;;;;;5.50;2.62;;;;;;;23.56;58.98;100588.84;1800684;78;20982;-73
2022/07/30 05:51:03;;;;;;;4.65;2.37;;;;;;;23.59;58.94;100583.08;1830467;78;21689;-72
2022/07/30 05:53:30;;;;;;;6.65;2.80;;;;;;;23.66;59.34;100585.28;1830244;78;20971;-72
2022/07/30 05:56:09;;;;;;;5.28;3.08;;;;;;;23.75;59.55;100583.24;1830522;77;21003;-72
2022/07/30 05:58:56;;;;;;;6.20;2.98;;;;;;;23.89;59.84;100593.02;1813118;77;21007;-72
2022/07/30 06:01:24;;;;;;;6.28;2.95;;;;;;;24.01;59.73;100593.25;1795731;79;20986;-72
2022/07/30 06:03:52;;;;;;;5.17;2.67;;;;;;;24.12;59.68;100588.59;1797757;79;21906;-73
2022/07/30 06:06:38;;;;;;;6.22;2.90;;;;;;;24.21;59.10;100584.67;1798439;78;21082;-72
2022/07/30 06:09:05;;;;;;;7.45;2.50;;;;;;;24.30;57.29;100579.91;1798290;78;20979;-72
2022/07/30 06:11:33;;;;;;;8.20;3.10;;;;;;;24.34;56.91;100583.08;1800111;78;21081;-72
2022/07/30 06:14:00;;;;;;;5.85;2.95;;;;;;;24.46;57.12;100588.16;1799090;78;21034;-72
2022/07/30 06:16:28;;;;;;;6.10;2.92;;;;;;;24.58;56.63;100589.72;1797778;78;21825;-72
2022/07/30 06:18:56;;;;;;;5.33;2.65;;;;;;;24.70;56.41;100592.09;1797632;78;20923;-72
2022/07/30 06:21:24;;;;;;;8.38;2.77;;;;;;;24.86;56.62;100586.78;1796243;79;21406;-72
2022/07/30 06:23:54;;;;;;;6.58;2.80;;;;;;;24.98;56.35;100587.80;1814854;77;20975;-72
2022/07/30 06:26:29;;;;;;;7.55;2.92;;;;;;;25.02;54.35;100589.09;1829217;78;20986;-72
2022/07/30 06:28:56;;;;;;;7.22;3.00;;;;;;;25.06;54.41;100584.91;1830406;77;21903;-73
2022/07/30 06:31:24;;;;;;;4.45;2.67;;;;;;;25.14;54.29;100579.28;1817894;78;20990;-72
2022/07/30 06:33:52;;;;;;;5.45;3.10;;;;;;;25.26;54.92;100574.87;1798333;78;20954;-73
2022/07/30 06:36:19;;;;;;;9.68;3.10;;;;;;;25.36;54.26;100574.42;1797725;79;20978;-72
2022/07/30 06:38:52;;;;;;;4.87;2.85;;;;;;;25.38;54.04;100573.67;1798724;78;21025;-72
2022/07/30 06:41:20;;;;;;;7.87;2.72;;;;;;;25.37;53.85;100574.20;1815662;78;22026;-73
2022/07/30 06:43:51;;;;;;;5.78;2.75;;;;;;;25.42;53.39;100570.88;1816195;79;21030;-72
2022/07/30 06:46:24;;;;;;;5.78;2.75;;;;;;;25.43;52.93;100574.41;1812993;78;21428;-72
2022/07/30 06:48:53;;;;;;;8.93;3.02;;;;;;;25.49;53.32;100570.33;1833514;77;21448;-73
2022/07/30 06:51:21;;;;;;;4.35;2.70;;;;;;;25.57;53.51;100572.77;1837671;77;20979;-73
2022/07/30 06:53:50;;;;;;;3.85;2.40;;;;;;;25.66;53.36;100569.30;1849526;77;20998;-72
2022/07/30 06:56:16;;;;;;;4.83;2.50;;;;;;;25.71;52.75;100563.28;1849427;77;20935;-72
2022/07/30 06:58:51;;;;;;;7.78;2.40;;;;;;;25.78;52.65;100569.50;1849148;76;20942;-74
2022/07/30 07:01:37;;;;;;;3.00;2.25;;;;;;;25.86;51.93;100562.45;1816367;77;20950;-73
2022/07/30 07:04:03;;;;;;;3.45;2.00;;;;;;;26.01;51.23;100560.81;1816543;78;20938;-72
2022/07/30 07:06:32;;;;;;;3.55;1.90;;;;;;;26.10;48.70;100562.20;1809380;77;21020;-71
2022/07/30 07:08:58;;;;;;;7.05;1.70;;;;;;;26.11;46.87;100560.62;1780079;77;21080;-73
2022/07/30 07:11:28;;;;;;;5.08;1.80;;;;;;;26.09;44.96;100558.67;1816181;78;21037;-73
2022/07/30 07:13:57;;;;;;;4.90;1.55;;;;;;;26.08;45.05;100561.08;1816130;79;20945;-73
2022/07/30 07:16:25;;;;;;;3.52;1.85;;;;;;;26.10;44.56;100563.56;1815584;79;20926;-71
2022/07/30 07:18:55;;;;;;;3.50;1.70;;;;;;;26.12;45.44;100562.28;1816253;79;20934;-72
2022/07/30 07:21:22;;;;;;;6.25;1.65;;;;;;;26.09;42.08;100555.97;1847175;77;21021;-72
2022/07/30 07:23:51;;;;;;;3.35;1.70;;;;;;;26.01;42.99;100558.10;1849533;77;21001;-72
2022/07/30 07:26:26;;;;;;;2.75;1.55;;;;;;;26.00;43.12;100555.92;1844999;77;20947;-72
2022/07/30 07:28:53;;;;;;;5.62;1.65;;;;;;;26.07;42.77;100555.89;1849659;77;20990;-72
2022/07/30 07:31:21;;;;;;;4.08;1.50;;;;;;;26.11;41.53;100553.03;1817765;77;21935;-73
2022/07/30 07:33:48;;;;;;;4.15;1.80;;;;;;;26.17;42.38;100556.23;1816011;79;21531;-72
2022/07/30 07:36:16;;;;;;;7.58;1.70;;;;;;;26.25;42.43;100560.03;1816187;79;21113;-72
2022/07/30 07:38:43;;;;;;;4.10;1.45;;;;;;;26.26;41.07;100557.62;1817214;77;21071;-72
2022/07/30 07:41:11;;;;;;;7.83;1.50;;;;;;;26.25;41.39;100554.61;1844065;77;20966;-72
2022/07/30 07:43:39;;;;;;;4.80;1.50;;;;;;;26.24;42.07;100557.81;1849784;77;22548;-72
2022/07/30 07:46:09;;;;;;;2.72;1.45;;;;;;;26.36;40.50;100557.12;1824272;77;21547;-71
2022/07/30 07:48:38;;;;;;;3.80;1.52;;;;;;;26.45;38.64;100563.96;1849776;77;20970;-72
2022/07/30 07:51:06;;;;;;;6.25;1.80;;;;;;;26.51;40.51;100562.53;1834456;77;21025;-71
2022/07/30 07:53:33;;;;;;;6.95;1.70;;;;;;;26.48;41.96;100565.69;1849869;77;20946;-71
2022/07/30 07:56:01;;;;;;;6.53;1.50;;;;;;;26.47;42.50;100557.80;1843042;77;21916;-71
2022/07/30 07:58:28;;;;;;;2.67;1.37;;;;;;;26.50;43.12;100563.58;1830202;77;21543;-72
2022/07/30 08:00:57;;;;;;;4.65;1.47;;;;;;;26.57;40.72;100563.53;1848841;77;20942;-72
2022/07/30 08:03:26;;;;;;;2.55;1.35;;;;;;;26.62;40.34;100558.79;1849744;76;20994;-73
2022/07/30 08:05:53;;;;;;;3.25;1.65;;;;;;;26.71;41.91;100555.57;1850136;77;20984;-73
2022/07/30 08:08:26;;;;;;;3.87;1.57;;;;;;;26.78;41.84;100556.88;1784486;77;21854;-73
2022/07/30 08:11:11;;;;;;;3.33;1.37;;;;;;;26.78;41.18;100551.45;1848944;77;21026;-73
2022/07/30 08:13:41;;;;;;;3.50;1.47;;;;;;;26.83;40.48;100547.56;1793171;79;21447;-73
2022/07/30 08:16:27;;;;;;;3.65;1.20;;;;;;;26.88;40.15;100550.94;1816533;79;20950;-73
2022/07/30 08:19:02;;;;;;;3.70;1.20;;;;;;;26.92;37.88;100552.95;1830356;77;20954;-73
2022/07/30 08:21:38;;;;;;;2.60;1.47;;;;;;;26.91;37.52;100545.05;1818404;77;22428;-73
2022/07/30 08:24:06;;;;;;;2.17;1.35;;;;;;;26.91;38.46;100547.77;1816481;79;21116;-73
2022/07/30 08:26:33;;;;;;;5.75;1.32;;;;;;;26.96;40.31;100547.94;1816982;79;20985;-73
2022/07/30 08:28:59;;;;;;;4.22;1.32;;;;;;;27.03;41.30;100550.91;1816649;79;21033;-73
2022/07/30 08:31:27;;;;;;;6.72;1.32;;;;;;;27.09;39.07;100545.92;1817851;77;20993;-73
2022/07/30 08:33:55;;;;;;;5.87;1.55;;;;;;;27.12;39.24;100551.45;1816661;79;20935;-74
2022/07/30 08:36:22;;;;;;;2.40;1.30;;;;;;;27.11;38.97;100551.12;1816800;79;20970;-73
2022/07/30 08:38:50;;;;;;;5.97;1.45;;;;;;;27.14;39.34;100558.00;1816574;79;20993;-73
2022/07/30 08:41:21;;;;;;;3.10;1.20;;;;;;;27.17;39.17;100552.94;1816313;78;21093;-73
2022/07/30 08:43:49;;;;;;;3.52;1.12;;;;;;;27.17;39.52;100554.82;1816962;77;21303;-74
2022/07/30 08:46:17;;;;;;;3.42;1.57;;;;;;;27.22;39.80;100555.81;1849700;77;22546;-73
2022/07/30 08:48:50;;;;;;;5.70;1.40;;;;;;;27.31;39.11;100552.23;1846924;77;21029;-73
2022/07/30 08:51:18;;;;;;;3.58;1.80;;;;;;;27.35;38.77;100554.28;1796367;77;21022;-73
2022/07/30 08:53:55;;;;;;;3.70;1.40;;;;;;;27.39;39.12;100551.94;1849605;77;20983;-73
2022/07/30 08:56:22;;;;;;;5.37;1.60;;;;;;;27.44;39.59;100550.73;1849650;77;21038;-72
2022/07/30 08:58:48;;;;;;;3.37;1.40;;;;;;;27.54;39.29;100552.91;1849311;77;21941;-73
2022/07/30 09:01:16;;;;;;;4.95;1.40;;;;;;;27.56;37.47;100554.86;1816167;79;21373;-73
2022/07/30 09:03:44;;;;;;;3.05;1.30;;;;;;;27.47;36.84;100554.34;1817369;77;21045;-73
2022/07/30 09:06:12;;;;;;;4.50;1.35;;;;;;;27.44;38.13;100550.73;1816449;79;21471;-73
2022/07/30 09:08:39;;;;;;;2.52;1.25;;;;;;;27.54;38.94;100546.13;1816517;79;21055;-73
2022/07/30 09:11:07;;;;;;;2.80;1.40;;;;;;;27.69;38.04;100545.20;1789484;79;21847;-72
2022/07/30 09:13:37;;;;;;;3.55;1.40;;;;;;;27.76;38.30;100541.87;1848843;77;21350;-73
2022/07/30 09:16:05;;;;;;;4.15;1.50;;;;;;;27.88;38.12;100544.09;1849662;77;20946;-73
2022/07/30 09:18:39;;;;;;;5.62;1.60;;;;;;;28.04;38.21;100542.61;1849741;77;20982;-72
2022/07/30 09:21:25;;;;;;;3.05;1.40;;;;;;;28.18;38.15;100537.28;1841471;77;20926;-71
2022/07/30 09:24:00;;;;;;;2.40;1.42;;;;;;;28.37;37.75;100546.70;1815728;79;21801;-72
2022/07/30 09:26:58;;;;;;;3.25;1.62;;;;;;;28.47;36.59;100536.94;1831484;77;21410;-72
2022/07/30 09:29:28;;;;;;;8.58;1.60;;;;;;;28.46;37.08;100539.33;1777134;77;21333;-71
2022/07/30 09:32:13;;;;;;;2.77;1.90;;;;;;;28.49;36.97;100539.41;1849520;77;20946;-72
2022/07/30 09:35:12;;;;;;;3.15;1.80;;;;;;;28.48;37.52;100543.20;1849764;77;21041;-72
2022/07/30 09:37:59;;;;;;;3.87;2.00;;;;;;;28.55;37.16;100541.17;1827667;77;21500;-72
2022/07/30 09:40:50;;;;;;;3.85;1.77;;;;;;;28.57;37.02;100538.21;1816331;77;20946;-72
2022/07/30 09:43:47;;;;;;;4.83;1.80;;;;;;;28.54;36.62;100537.33;1816687;79;20922;-71
2022/07/30 09:46:45;;;;;;;2.87;1.72;;;;;;;28.48;36.54;100537.23;1815666;78;21533;-71
2022/07/30 09:49:18;;;;;;;2.60;1.95;;;;;;;28.62;37.00;100528.83;1816725;79;20938;-71
2022/07/30 09:51:44;;;;;;;2.83;1.67;;;;;;;28.73;37.74;100532.90;1815991;78;21914;-71
2022/07/30 09:54:13;;;;;;;8.95;1.70;;;;;;;28.81;36.66;100526.28;1816504;79;20967;-71
2022/07/30 09:56:40;;;;;;;2.35;1.72;;;;;;;28.81;37.94;100530.36;1819585;77;20994;-71
2022/07/30 09:59:29;;;;;;;5.95;2.05;;;;;;;28.91;37.54;100521.09;1839381;77;20934;-71
2022/07/30 10:01:56;;;;;;;5.85;1.98;;;;;;;29.04;37.55;100517.27;1849810;77;20946;-71
2022/07/30 10:04:41;;;;;;;3.02;1.65;;;;;;;29.21;37.40;100515.47;1849912;77;21907;-72
2022/07/30 10:07:17;;;;;;;5.17;1.90;;;;;;;29.31;36.35;100515.67;1849682;77;21468;-71
2022/07/30 10:09:47;;;;;;;2.98;1.80;;;;;;;29.31;37.92;100517.56;1823482;77;20943;-71
2022/07/30 10:12:15;;;;;;;5.97;1.70;;;;;;;29.40;37.04;100514.75;1840030;77;21413;-72
2022/07/30 10:14:45;;;;;;;3.02;1.75;;;;;;;29.49;37.33;100512.51;1816668;79;20946;-71
2022/07/30 10:17:14;;;;;;;4.58;1.90;;;;;;;29.58;36.64;100510.52;1816579;79;21437;-71
2022/07/30 10:19:44;;;;;;;3.35;2.10;;;;;;;29.64;36.87;100512.27;1816433;79;21036;-72
2022/07/30 10:22:23;;;;;;;4.33;2.10;;;;;;;29.91;36.29;100513.82;1816825;79;21556;-72
2022/07/30 10:24:58;;;;;;;5.12;1.98;;;;;;;29.95;36.39;100509.27;1816492;79;21041;-72
2022/07/30 10:27:43;;;;;;;2.27;1.98;;;;;;;29.95;36.39;100509.27;1817468;77;20950;-71
2022/07/30 10:30:30;;;;;;;2.67;1.90;;;;;;;30.01;36.83;100503.64;1843796;77;20997;-71
2022/07/30 10:32:57;;;;;;;4.50;1.82;;;;;;;30.23;37.00;100508.41;1849986;77;20923;-72
2022/07/30 10:35:26;;;;;;;4.22;1.90;;;;;;;30.44;35.91;100514.45;1849944;77;21014;-71
2022/07/30 10:37:52;;;;;;;5.42;2.10;;;;;;;30.53;35.25;100507.51;1850089;77;21410;-72
2022/07/30 10:40:37;;;;;;;5.67;2.30;;;;;;;30.48;35.68;100506.88;1849848;77;21029;-72
2022/07/30 10:43:10;;;;;;;;;;;;;;;30.53;35.16;100504.78;1826460;77;21779;-71
2022/07/30 10:46:29;;;;;;;4.78;2.80;;;;;;;30.62;35.46;100507.91;1800936;77;20181;-72
2022/07/30 10:49:14;;;;;;;5.58;2.45;;;;;;;30.72;35.52;100499.91;1816515;79;20973;-71
2022/07/30 10:51:48;;;;;;;4.15;1.82;;;;;;;30.77;35.12;100502.68;1816158;79;21100;-72
2022/07/30 10:54:43;;;;;;;3.83;1.80;;;;;;;30.75;35.47;100502.94;1816638;79;20938;-72
2022/07/30 10:57:17;;;;;;;3.17;1.75;;;;;;;30.71;34.85;100498.25;1816209;79;22497;-72
2022/07/30 10:59:59;;;;;;;7.35;3.95;;;;;;;30.74;34.63;100493.65;1824077;76;20933;-72
2022/07/30 11:02:28;;;;;;;4.83;2.30;;;;;;;30.78;35.63;100490.70;1784461;79;20967;-73
2022/07/30 11:05:20;;;;;;;8.18;4.08;;;;;;;30.88;35.43;100497.64;1803970;79;21473;-72
2022/07/30 11:07:47;;;;;;;126.05;94.92;;;;;;;31.04;35.29;100489.95;1816196;79;20908;-71
2022/07/30 11:10:39;;;;;;;18.15;13.38;;;;;;;31.18;34.80;100489.59;1787210;79;20915;-72
2022/07/30 11:13:06;;;;;;;6.65;3.40;;;;;;;31.39;34.72;100493.39;1778724;79;20939;-72
2022/07/30 11:15:58;;;;;;;27.07;14.15;;;;;;;31.48;34.56;100491.31;1815346;79;20931;-71
2022/07/30 11:18:27;;;;;;;6.75;3.55;;;;;;;31.61;34.75;100495.53;1815629;78;20976;-72
2022/07/30 11:21:18;;;;;;;40.52;16.93;;;;;;;31.79;33.79;100499.84;1812421;79;20971;-72
2022/07/30 11:23:46;;;;;;;33.63;14.35;;;;;;;31.91;34.05;100497.75;1815594;77;20921;-71
2022/07/30 11:26:42;;;;;;;8.50;4.37;;;;;;;32.21;34.19;100490.89;1815280;79;20932;-72
2022/07/30 11:29:32;;;;;;;6.50;2.17;;;;;;;32.39;33.00;100496.80;1811272;79;21015;-72
2022/07/30 11:32:30;;;;;;;77.25;33.75;;;;;;;32.35;33.10;100495.69;1762844;79;21018;-72
2022/07/30 11:35:25;;;;;;;10.23;5.65;;;;;;;32.51;34.03;100493.03;1824664;78;21059;-72
2022/07/30 11:38:14;;;;;;;7.10;2.85;;;;;;;32.75;32.75;100493.73;1807681;77;21840;-71
2022/07/30 11:40:49;;;;;;;68.42;34.73;;;;;;;32.70;32.73;100492.88;1815317;77;20984;-73
2022/07/30 11:43:28;;;;;;;58.10;29.12;;;;;;;32.59;32.75;100489.27;1815497;79;20947;-71
2022/07/30 11:46:11;;;;;;;42.43;20.48;;;;;;;32.55;33.78;100492.26;1815203;77;20980;-72